sensor_id;sensor_type;location;lat;lon;timestamp;pressure;altitude;pressure_sealevel;temperature;humidity
45285;BME280;31026;43.780;25.948;2022-10-26T00:01:26;101148.63;;;21.14;65.12
45285;BME280;31026;43.780;25.948;2022-10-26T00:04:06;101151.19;;;21.15;66.09
45285;BME280;31026;43.780;25.948;2022-10-26T00:06:37;101146.91;;;21.13;67.03
45285;BME280;31026;43.780;25.948;2022-10-26T00:09:08;101145.25;;;21.12;65.83
45285;BME280;31026;43.780;25.948;2022-10-26T00:11:36;101147.94;;;21.12;65.77
45285;BME280;31026;43.780;25.948;2022-10-26T00:14:08;101154.16;;;21.12;65.71
45285;BME280;31026;43.780;25.948;2022-10-26T00:16:44;101162.09;;;21.14;67.17
45285;BME280;31026;43.780;25.948;2022-10-26T00:19:14;101172.97;;;21.12;66.81
45285;BME280;31026;43.780;25.948;2022-10-26T00:21:49;101163.34;;;21.10;66.70
45285;BME280;31026;43.780;25.948;2022-10-26T00:24:20;101154.03;;;21.14;66.69
45285;BME280;31026;43.780;25.948;2022-10-26T00:26:49;101159.66;;;21.11;67.20
45285;BME280;31026;43.780;25.948;2022-10-26T00:29:21;101163.50;;;21.08;67.54
45285;BME280;31026;43.780;25.948;2022-10-26T00:31:53;101165.34;;;21.08;67.10
45285;BME280;31026;43.780;25.948;2022-10-26T00:34:25;101156.25;;;21.09;67.00
45285;BME280;31026;43.780;25.948;2022-10-26T00:36:58;101150.88;;;21.09;66.27
45285;BME280;31026;43.780;25.948;2022-10-26T00:39:26;101158.25;;;21.06;66.67
45285;BME280;31026;43.780;25.948;2022-10-26T00:41:58;101163.63;;;21.06;66.18
45285;BME280;31026;43.780;25.948;2022-10-26T00:47:15;101158.25;;;21.06;66.73
45285;BME280;31026;43.780;25.948;2022-10-26T00:49:46;101156.44;;;21.07;67.37
45285;BME280;31026;43.780;25.948;2022-10-26T00:52:31;101152.88;;;21.06;66.90
45285;BME280;31026;43.780;25.948;2022-10-26T00:55:00;101152.03;;;21.06;66.61
45285;BME280;31026;43.780;25.948;2022-10-26T00:57:31;101156.56;;;21.05;65.81
45285;BME280;31026;43.780;25.948;2022-10-26T01:00:05;101159.97;;;21.08;67.09
45285;BME280;31026;43.780;25.948;2022-10-26T01:02:34;101172.41;;;21.28;67.15
45285;BME280;31026;43.780;25.948;2022-10-26T01:05:10;101161.78;;;21.95;65.10
45285;BME280;31026;43.780;25.948;2022-10-26T01:07:50;101157.38;;;21.94;65.19
45285;BME280;31026;43.780;25.948;2022-10-26T01:10:21;101197.66;;;21.76;65.86
45285;BME280;31026;43.780;25.948;2022-10-26T01:12:52;101172.97;;;22.00;65.05
45285;BME280;31026;43.780;25.948;2022-10-26T01:15:27;101171.78;;;22.12;64.78
45285;BME280;31026;43.780;25.948;2022-10-26T01:18:07;101174.97;;;21.78;65.52
45285;BME280;31026;43.780;25.948;2022-10-26T01:23:40;101177.16;;;22.12;64.89
45285;BME280;31026;43.780;25.948;2022-10-26T01:26:34;101176.16;;;22.23;64.31
45285;BME280;31026;43.780;25.948;2022-10-26T01:29:22;101177.97;;;21.85;65.25
45285;BME280;31026;43.780;25.948;2022-10-26T01:32:03;101178.97;;;21.64;66.37
45285;BME280;31026;43.780;25.948;2022-10-26T01:34:35;101164.19;;;21.88;65.66
45285;BME280;31026;43.780;25.948;2022-10-26T01:37:11;101167.38;;;22.21;64.67
45285;BME280;31026;43.780;25.948;2022-10-26T01:39:43;101181.84;;;22.20;64.67
45285;BME280;31026;43.780;25.948;2022-10-26T01:42:18;101175.41;;;21.83;65.72
45285;BME280;31026;43.780;25.948;2022-10-26T01:44:59;101172.72;;;21.64;66.18
45285;BME280;31026;43.780;25.948;2022-10-26T01:47:36;101186.44;;;21.80;65.47
45285;BME280;31026;43.780;25.948;2022-10-26T01:50:09;101185.41;;;22.20;64.76
45285;BME280;31026;43.780;25.948;2022-10-26T01:52:48;101170.09;;;22.11;65.05
45285;BME280;31026;43.780;25.948;2022-10-26T01:58:30;101196.56;;;21.69;66.32
45285;BME280;31026;43.780;25.948;2022-10-26T02:01:08;101171.84;;;21.93;65.36
45285;BME280;31026;43.780;25.948;2022-10-26T02:03:45;101175.03;;;22.16;64.82
45285;BME280;31026;43.780;25.948;2022-10-26T02:06:19;101191.34;;;22.14;64.99
45285;BME280;31026;43.780;25.948;2022-10-26T02:08:54;101193.09;;;21.86;65.54
45285;BME280;31026;43.780;25.948;2022-10-26T02:11:29;101182.66;;;21.73;66.00
45285;BME280;31026;43.780;25.948;2022-10-26T02:14:02;101200.66;;;21.63;66.45
45285;BME280;31026;43.780;25.948;2022-10-26T02:16:36;101182.31;;;22.05;65.23
45285;BME280;31026;43.780;25.948;2022-10-26T02:19:09;101191.31;;;22.34;64.35
45285;BME280;31026;43.780;25.948;2022-10-26T02:21:42;101200.72;;;22.10;64.85
45285;BME280;31026;43.780;25.948;2022-10-26T02:24:11;101195.97;;;21.84;65.46
45285;BME280;31026;43.780;25.948;2022-10-26T02:26:41;101195.41;;;21.71;65.85
45285;BME280;31026;43.780;25.948;2022-10-26T02:29:12;101202.63;;;21.61;66.34
45285;BME280;31026;43.780;25.948;2022-10-26T02:31:43;101208.66;;;22.02;65.32
45285;BME280;31026;43.780;25.948;2022-10-26T02:34:17;101199.28;;;22.26;64.37
45285;BME280;31026;43.780;25.948;2022-10-26T02:36:46;101206.41;;;22.07;65.37
45285;BME280;31026;43.780;25.948;2022-10-26T02:39:16;101211.38;;;21.82;65.80
45285;BME280;31026;43.780;25.948;2022-10-26T02:41:45;101205.47;;;21.69;66.16
45285;BME280;31026;43.780;25.948;2022-10-26T02:44:17;101208.56;;;21.64;66.02
45285;BME280;31026;43.780;25.948;2022-10-26T02:46:47;101208.66;;;22.02;65.04
45285;BME280;31026;43.780;25.948;2022-10-26T02:49:19;101197.31;;;22.28;64.40
45285;BME280;31026;43.780;25.948;2022-10-26T02:51:48;101205.38;;;22.08;65.29
45285;BME280;31026;43.780;25.948;2022-10-26T02:54:18;101213.81;;;21.85;65.53
45285;BME280;31026;43.780;25.948;2022-10-26T02:56:51;101213.53;;;21.69;66.03
45285;BME280;31026;43.780;25.948;2022-10-26T02:59:21;101210.72;;;21.61;66.40
45285;BME280;31026;43.780;25.948;2022-10-26T03:01:52;101223.00;;;22.02;64.93
45285;BME280;31026;43.780;25.948;2022-10-26T03:04:28;101220.56;;;22.29;64.20
45285;BME280;31026;43.780;25.948;2022-10-26T03:06:57;101218.84;;;22.08;65.09
45285;BME280;31026;43.780;25.948;2022-10-26T03:09:26;101232.78;;;21.84;65.46
45285;BME280;31026;43.780;25.948;2022-10-26T03:11:54;101222.75;;;21.67;66.14
45285;BME280;31026;43.780;25.948;2022-10-26T03:14:23;101226.88;;;21.71;66.24
45285;BME280;31026;43.780;25.948;2022-10-26T03:16:51;101235.72;;;22.10;64.88
45285;BME280;31026;43.780;25.948;2022-10-26T03:19:19;101238.72;;;22.27;64.29
45285;BME280;31026;43.780;25.948;2022-10-26T03:21:50;101235.31;;;22.05;65.11
45285;BME280;31026;43.780;25.948;2022-10-26T03:24:18;101245.41;;;21.83;65.78
45285;BME280;31026;43.780;25.948;2022-10-26T03:26:47;101243.56;;;21.74;66.14
45285;BME280;31026;43.780;25.948;2022-10-26T03:29:15;101243.72;;;21.63;66.35
45285;BME280;31026;43.780;25.948;2022-10-26T03:31:43;101245.66;;;22.10;64.98
45285;BME280;31026;43.780;25.948;2022-10-26T03:34:11;101265.66;;;22.27;64.42
45285;BME280;31026;43.780;25.948;2022-10-26T03:36:40;101244.09;;;22.07;64.99
45285;BME280;31026;43.780;25.948;2022-10-26T03:39:11;101246.56;;;21.81;65.59
45285;BME280;31026;43.780;25.948;2022-10-26T03:41:39;101247.25;;;21.73;65.83
45285;BME280;31026;43.780;25.948;2022-10-26T03:44:08;101237.31;;;21.64;65.94
45285;BME280;31026;43.780;25.948;2022-10-26T03:46:36;101232.78;;;22.03;64.92
45285;BME280;31026;43.780;25.948;2022-10-26T03:49:05;101231.34;;;22.29;64.32
45285;BME280;31026;43.780;25.948;2022-10-26T03:51:33;101230.50;;;22.09;64.98
45285;BME280;31026;43.780;25.948;2022-10-26T03:54:01;101244.97;;;21.88;65.43
45285;BME280;31026;43.780;25.948;2022-10-26T03:56:32;101241.59;;;21.67;66.09
45285;BME280;31026;43.780;25.948;2022-10-26T03:59:00;101247.97;;;21.75;65.71
45285;BME280;31026;43.780;25.948;2022-10-26T04:01:29;101282.91;;;22.14;65.08
45285;BME280;31026;43.780;25.948;2022-10-26T04:03:57;101272.31;;;22.22;64.24
45285;BME280;31026;43.780;25.948;2022-10-26T04:06:25;101281.97;;;21.96;65.26
45285;BME280;31026;43.780;25.948;2022-10-26T04:08:53;101279.97;;;21.78;65.73
45285;BME280;31026;43.780;25.948;2022-10-26T04:11:26;101269.34;;;21.67;66.12
45285;BME280;31026;43.780;25.948;2022-10-26T04:13:57;101281.09;;;21.76;65.69
45285;BME280;31026;43.780;25.948;2022-10-26T04:16:26;101270.03;;;22.18;64.45
45285;BME280;31026;43.780;25.948;2022-10-26T04:18:54;101281.66;;;22.18;65.00
45285;BME280;31026;43.780;25.948;2022-10-26T04:21:23;101291.88;;;21.95;65.39
45285;BME280;31026;43.780;25.948;2022-10-26T04:23:51;101289.88;;;21.78;65.87
45285;BME280;31026;43.780;25.948;2022-10-26T04:26:19;101297.97;;;21.68;66.06
45285;BME280;31026;43.780;25.948;2022-10-26T04:28:47;101280.53;;;21.92;65.13
45285;BME280;31026;43.780;25.948;2022-10-26T04:31:18;101287.47;;;22.14;64.56
45285;BME280;31026;43.780;25.948;2022-10-26T04:33:47;101295.13;;;22.18;64.73
45285;BME280;31026;43.780;25.948;2022-10-26T04:36:15;101286.94;;;21.91;65.43
45285;BME280;31026;43.780;25.948;2022-10-26T04:38:43;101303.38;;;21.88;65.78
45285;BME280;31026;43.780;25.948;2022-10-26T04:41:11;101299.13;;;21.75;65.62
45285;BME280;31026;43.780;25.948;2022-10-26T04:43:40;101287.66;;;21.93;65.71
45285;BME280;31026;43.780;25.948;2022-10-26T04:46:08;101297.13;;;22.26;65.05
45285;BME280;31026;43.780;25.948;2022-10-26T04:48:41;101310.72;;;22.05;65.98
45285;BME280;31026;43.780;25.948;2022-10-26T04:51:09;101293.03;;;21.83;66.38
45285;BME280;31026;43.780;25.948;2022-10-26T04:53:37;101301.53;;;21.69;67.18
45285;BME280;31026;43.780;25.948;2022-10-26T04:56:06;101302.91;;;21.53;67.02
45285;BME280;31026;43.780;25.948;2022-10-26T04:58:34;101311.19;;;21.40;67.00
45285;BME280;31026;43.780;25.948;2022-10-26T05:01:02;101312.31;;;21.28;67.64
45285;BME280;31026;43.780;25.948;2022-10-26T05:03:31;101309.59;;;21.28;67.96
45285;BME280;31026;43.780;25.948;2022-10-26T05:06:02;101315.28;;;21.25;67.98
45285;BME280;31026;43.780;25.948;2022-10-26T05:08:30;101316.09;;;21.16;68.41
45285;BME280;31026;43.780;25.948;2022-10-26T05:10:58;101324.88;;;21.18;68.29
45285;BME280;31026;43.780;25.948;2022-10-26T05:13:27;101304.66;;;21.23;68.29
45285;BME280;31026;43.780;25.948;2022-10-26T05:15:55;101309.94;;;21.35;67.75
45285;BME280;31026;43.780;25.948;2022-10-26T05:18:24;101313.34;;;21.47;67.22
45285;BME280;31026;43.780;25.948;2022-10-26T05:20:53;101327.31;;;21.31;67.88
45285;BME280;31026;43.780;25.948;2022-10-26T05:23:24;101321.66;;;21.34;68.08
45285;BME280;31026;43.780;25.948;2022-10-26T05:25:53;101340.28;;;21.47;67.26
45285;BME280;31026;43.780;25.948;2022-10-26T05:28:22;101344.13;;;21.54;67.27
45285;BME280;31026;43.780;25.948;2022-10-26T05:30:50;101346.09;;;21.52;67.91
45285;BME280;31026;43.780;25.948;2022-10-26T05:33:19;101336.75;;;21.56;67.57
45285;BME280;31026;43.780;25.948;2022-10-26T05:35:47;101346.09;;;21.52;67.66
45285;BME280;31026;43.780;25.948;2022-10-26T05:38:15;101352.31;;;21.52;67.81
45285;BME280;31026;43.780;25.948;2022-10-26T05:40:50;101347.81;;;21.53;67.77
45285;BME280;31026;43.780;25.948;2022-10-26T05:43:19;101344.41;;;21.60;68.05
45285;BME280;31026;43.780;25.948;2022-10-26T05:45:48;101351.38;;;21.63;68.25
45285;BME280;31026;43.780;25.948;2022-10-26T05:48:17;101357.47;;;21.65;68.02
45285;BME280;31026;43.780;25.948;2022-10-26T05:50:45;101363.56;;;21.67;68.16
45285;BME280;31026;43.780;25.948;2022-10-26T05:53:14;101373.63;;;21.65;68.54
45285;BME280;31026;43.780;25.948;2022-10-26T05:55:42;101381.00;;;21.73;68.63
45285;BME280;31026;43.780;25.948;2022-10-26T05:58:14;101362.56;;;21.68;68.04
45285;BME280;31026;43.780;25.948;2022-10-26T06:00:46;101370.53;;;21.79;68.54
45285;BME280;31026;43.780;25.948;2022-10-26T06:03:21;101378.16;;;21.74;68.13
45285;BME280;31026;43.780;25.948;2022-10-26T06:05:53;101366.84;;;21.71;68.43
45285;BME280;31026;43.780;25.948;2022-10-26T06:08:23;101377.03;;;21.67;67.03
45285;BME280;31026;43.780;25.948;2022-10-26T06:10:52;101380.13;;;21.72;68.19
45285;BME280;31026;43.780;25.948;2022-10-26T06:13:24;101391.47;;;21.76;68.13
45285;BME280;31026;43.780;25.948;2022-10-26T06:16:02;101395.72;;;21.78;68.53
45285;BME280;31026;43.780;25.948;2022-10-26T06:18:35;101394.88;;;21.78;67.86
45285;BME280;31026;43.780;25.948;2022-10-26T06:21:09;101401.13;;;21.78;68.21
45285;BME280;31026;43.780;25.948;2022-10-26T06:23:43;101409.19;;;21.78;68.50
45285;BME280;31026;43.780;25.948;2022-10-26T06:26:16;101408.94;;;21.81;68.18
45285;BME280;31026;43.780;25.948;2022-10-26T06:28:52;101404.94;;;21.76;68.05
45285;BME280;31026;43.780;25.948;2022-10-26T06:31:24;101399.84;;;21.73;67.51
45285;BME280;31026;43.780;25.948;2022-10-26T06:33:54;101410.44;;;21.64;62.58
45285;BME280;31026;43.780;25.948;2022-10-26T06:36:25;101420.69;;;21.71;65.23
45285;BME280;31026;43.780;25.948;2022-10-26T06:38:54;101432.72;;;21.67;63.39
45285;BME280;31026;43.780;25.948;2022-10-26T06:41:25;101410.72;;;21.61;64.99
45285;BME280;31026;43.780;25.948;2022-10-26T06:43:56;101415.13;;;21.72;65.18
45285;BME280;31026;43.780;25.948;2022-10-26T06:46:28;101421.22;;;21.74;65.67
45285;BME280;31026;43.780;25.948;2022-10-26T06:49:00;101415.56;;;21.77;65.91
45285;BME280;31026;43.780;25.948;2022-10-26T06:51:32;101429.91;;;21.88;65.52
45285;BME280;31026;43.780;25.948;2022-10-26T06:54:05;101420.84;;;21.89;65.74
45285;BME280;31026;43.780;25.948;2022-10-26T06:56:35;101423.56;;;21.89;65.92
45285;BME280;31026;43.780;25.948;2022-10-26T06:59:11;101424.53;;;21.88;64.87
45285;BME280;31026;43.780;25.948;2022-10-26T07:01:41;101420.44;;;21.93;65.56
45285;BME280;31026;43.780;25.948;2022-10-26T07:04:10;101428.94;;;21.89;65.89
45285;BME280;31026;43.780;25.948;2022-10-26T07:06:38;101423.97;;;21.94;65.94
45285;BME280;31026;43.780;25.948;2022-10-26T07:09:06;101433.91;;;21.93;65.78
45285;BME280;31026;43.780;25.948;2022-10-26T07:11:35;101426.78;;;21.92;65.88
45285;BME280;31026;43.780;25.948;2022-10-26T07:14:03;101418.88;;;21.91;65.90
45285;BME280;31026;43.780;25.948;2022-10-26T07:16:34;101426.25;;;21.89;65.29
45285;BME280;31026;43.780;25.948;2022-10-26T07:19:02;101426.66;;;21.94;65.18
45285;BME280;31026;43.780;25.948;2022-10-26T07:21:30;101421.44;;;22.02;65.22
45285;BME280;31026;43.780;25.948;2022-10-26T07:23:59;101436.03;;;21.99;64.19
45285;BME280;31026;43.780;25.948;2022-10-26T07:26:27;101443.25;;;21.99;64.57
45285;BME280;31026;43.780;25.948;2022-10-26T07:28:55;101429.81;;;21.99;64.39
45285;BME280;31026;43.780;25.948;2022-10-26T07:31:24;101434.88;;;21.92;63.95
45285;BME280;31026;43.780;25.948;2022-10-26T07:33:55;101430.59;;;21.80;64.00
45285;BME280;31026;43.780;25.948;2022-10-26T07:36:23;101420.97;;;21.77;64.80
45285;BME280;31026;43.780;25.948;2022-10-26T07:38:51;101435.94;;;21.70;64.42
45285;BME280;31026;43.780;25.948;2022-10-26T07:41:20;101429.31;;;21.74;63.75
45285;BME280;31026;43.780;25.948;2022-10-26T07:43:48;101421.50;;;21.71;63.71
45285;BME280;31026;43.780;25.948;2022-10-26T07:46:17;101435.81;;;21.72;62.77
45285;BME280;31026;43.780;25.948;2022-10-26T07:48:45;101413.88;;;21.67;63.19
45285;BME280;31026;43.780;25.948;2022-10-26T07:51:16;101419.50;;;21.63;62.51
45285;BME280;31026;43.780;25.948;2022-10-26T07:53:44;101443.31;;;21.68;61.74
45285;BME280;31026;43.780;25.948;2022-10-26T07:56:13;101434.94;;;21.61;60.44
45285;BME280;31026;43.780;25.948;2022-10-26T07:58:41;101428.38;;;21.54;60.33
45285;BME280;31026;43.780;25.948;2022-10-26T08:01:10;101436.22;;;21.57;60.85
45285;BME280;31026;43.780;25.948;2022-10-26T08:03:39;101432.38;;;21.60;61.91
45285;BME280;31026;43.780;25.948;2022-10-26T08:06:07;101429.97;;;21.57;60.54
45285;BME280;31026;43.780;25.948;2022-10-26T08:08:39;101433.78;;;21.54;59.49
45285;BME280;31026;43.780;25.948;2022-10-26T08:11:07;101424.97;;;21.52;59.45
45285;BME280;31026;43.780;25.948;2022-10-26T08:13:35;101427.41;;;21.55;60.53
45285;BME280;31026;43.780;25.948;2022-10-26T08:16:04;101418.78;;;21.61;60.81
45285;BME280;31026;43.780;25.948;2022-10-26T08:18:32;101427.16;;;21.68;60.70
45285;BME280;31026;43.780;25.948;2022-10-26T08:21:01;101426.59;;;21.74;60.13
45285;BME280;31026;43.780;25.948;2022-10-26T08:23:30;101417.81;;;21.72;59.90
45285;BME280;31026;43.780;25.948;2022-10-26T08:26:01;101426.91;;;21.71;60.10
45285;BME280;31026;43.780;25.948;2022-10-26T08:28:30;101427.47;;;21.75;60.04
45285;BME280;31026;43.780;25.948;2022-10-26T08:30:58;101427.19;;;21.78;59.90
45285;BME280;31026;43.780;25.948;2022-10-26T08:33:26;101426.47;;;21.76;59.71
45285;BME280;31026;43.780;25.948;2022-10-26T08:35:55;101420.66;;;21.80;59.23
45285;BME280;31026;43.780;25.948;2022-10-26T08:38:23;101431.59;;;21.79;59.29
45285;BME280;31026;43.780;25.948;2022-10-26T08:40:52;101426.91;;;21.71;58.11
45285;BME280;31026;43.780;25.948;2022-10-26T08:43:25;101418.13;;;21.69;58.87
45285;BME280;31026;43.780;25.948;2022-10-26T08:45:56;101435.41;;;21.76;58.97
45285;BME280;31026;43.780;25.948;2022-10-26T08:48:27;101420.66;;;21.80;59.01
45285;BME280;31026;43.780;25.948;2022-10-26T08:50:58;101433.75;;;21.85;58.97
45285;BME280;31026;43.780;25.948;2022-10-26T08:53:28;101429.16;;;21.76;58.54
45285;BME280;31026;43.780;25.948;2022-10-26T08:56:00;101425.50;;;21.77;58.91
45285;BME280;31026;43.780;25.948;2022-10-26T08:58:36;101431.16;;;21.74;59.25
45285;BME280;31026;43.780;25.948;2022-10-26T09:01:06;101422.09;;;21.75;59.24
45285;BME280;31026;43.780;25.948;2022-10-26T09:03:35;101415.28;;;21.71;58.13
45285;BME280;31026;43.780;25.948;2022-10-26T09:06:07;101420.09;;;21.67;57.85
45285;BME280;31026;43.780;25.948;2022-10-26T09:08:40;101423.50;;;21.69;57.15
45285;BME280;31026;43.780;25.948;2022-10-26T09:11:11;101427.03;;;21.70;58.84
45285;BME280;31026;43.780;25.948;2022-10-26T09:13:47;101418.97;;;21.70;57.86
45285;BME280;31026;43.780;25.948;2022-10-26T09:16:22;101417.56;;;21.75;59.02
45285;BME280;31026;43.780;25.948;2022-10-26T09:18:55;101424.25;;;21.81;58.70
45285;BME280;31026;43.780;25.948;2022-10-26T09:21:30;101422.66;;;21.78;59.07
45285;BME280;31026;43.780;25.948;2022-10-26T09:24:01;101419.13;;;21.78;58.66
45285;BME280;31026;43.780;25.948;2022-10-26T09:26:35;101424.94;;;21.83;58.85
45285;BME280;31026;43.780;25.948;2022-10-26T09:29:09;101428.50;;;21.83;58.38
45285;BME280;31026;43.780;25.948;2022-10-26T09:31:40;101432.72;;;21.76;58.46
45285;BME280;31026;43.780;25.948;2022-10-26T09:34:11;101412.59;;;21.80;58.47
45285;BME280;31026;43.780;25.948;2022-10-26T09:36:43;101427.34;;;21.86;58.29
45285;BME280;31026;43.780;25.948;2022-10-26T09:39:14;101425.53;;;21.87;57.80
45285;BME280;31026;43.780;25.948;2022-10-26T09:41:44;101425.53;;;21.87;57.63
45285;BME280;31026;43.780;25.948;2022-10-26T09:44:17;101432.34;;;21.91;57.68
45285;BME280;31026;43.780;25.948;2022-10-26T09:46:52;101423.66;;;21.77;58.46
45285;BME280;31026;43.780;25.948;2022-10-26T09:49:23;101412.28;;;21.64;55.76
45285;BME280;31026;43.780;25.948;2022-10-26T09:51:55;101433.94;;;21.62;56.00
45285;BME280;31026;43.780;25.948;2022-10-26T09:54:24;101409.72;;;21.53;54.73
45285;BME280;31026;43.780;25.948;2022-10-26T09:56:53;101417.25;;;21.59;53.74
45285;BME280;31026;43.780;25.948;2022-10-26T09:59:26;101413.84;;;21.57;56.24
45285;BME280;31026;43.780;25.948;2022-10-26T10:01:55;101410.81;;;21.50;53.79
45285;BME280;31026;43.780;25.948;2022-10-26T10:04:23;101400.47;;;21.45;53.26
45285;BME280;31026;43.780;25.948;2022-10-26T10:06:52;101415.09;;;21.53;53.71
45285;BME280;31026;43.780;25.948;2022-10-26T10:09:38;101404.84;;;21.47;53.20
45285;BME280;31026;43.780;25.948;2022-10-26T10:12:15;101412.06;;;21.46;53.16
45285;BME280;31026;43.780;25.948;2022-10-26T10:14:56;101392.63;;;21.42;52.76
45285;BME280;31026;43.780;25.948;2022-10-26T10:17:25;101400.47;;;21.45;52.53
45285;BME280;31026;43.780;25.948;2022-10-26T10:19:54;101395.97;;;21.56;53.92
45285;BME280;31026;43.780;25.948;2022-10-26T10:22:36;101388.19;;;21.53;53.18
45285;BME280;31026;43.780;25.948;2022-10-26T10:25:21;101389.56;;;21.47;53.43
45285;BME280;31026;43.780;25.948;2022-10-26T10:27:51;101405.00;;;21.45;53.72
45285;BME280;31026;43.780;25.948;2022-10-26T10:30:26;101395.94;;;21.46;53.27
45285;BME280;31026;43.780;25.948;2022-10-26T10:33:05;101391.13;;;21.50;53.46
45285;BME280;31026;43.780;25.948;2022-10-26T10:35:34;101398.50;;;21.48;53.23
45285;BME280;31026;43.780;25.948;2022-10-26T10:38:02;101390.84;;;21.43;53.42
45285;BME280;31026;43.780;25.948;2022-10-26T10:40:31;101400.19;;;21.49;53.28
45285;BME280;31026;43.780;25.948;2022-10-26T10:43:04;101384.03;;;21.49;53.93
45285;BME280;31026;43.780;25.948;2022-10-26T10:45:35;101378.72;;;21.68;51.84
45285;BME280;31026;43.780;25.948;2022-10-26T10:48:12;101384.34;;;21.55;52.96
45285;BME280;31026;43.780;25.948;2022-10-26T10:50:50;101398.94;;;21.62;53.54
45285;BME280;31026;43.780;25.948;2022-10-26T10:53:19;101379.56;;;21.59;53.51
45285;BME280;31026;43.780;25.948;2022-10-26T10:56:01;101380.69;;;21.66;53.34
45285;BME280;31026;43.780;25.948;2022-10-26T10:58:34;101384.97;;;21.78;53.85
45285;BME280;31026;43.780;25.948;2022-10-26T11:01:07;101387.84;;;21.87;54.07
45285;BME280;31026;43.780;25.948;2022-10-26T11:03:41;101376.78;;;21.90;54.42
45285;BME280;31026;43.780;25.948;2022-10-26T11:06:14;101378.75;;;21.97;54.10
45285;BME280;31026;43.780;25.948;2022-10-26T11:08:44;101378.75;;;21.97;54.24
45285;BME280;31026;43.780;25.948;2022-10-26T11:11:16;101379.91;;;22.04;54.66
45285;BME280;31026;43.780;25.948;2022-10-26T11:13:47;101370.69;;;21.97;55.22
45285;BME280;31026;43.780;25.948;2022-10-26T11:16:21;101372.38;;;21.98;55.50
45285;BME280;31026;43.780;25.948;2022-10-26T11:18:51;101370.56;;;21.99;55.71
45285;BME280;31026;43.780;25.948;2022-10-26T11:21:22;101380.44;;;21.98;55.45
45285;BME280;31026;43.780;25.948;2022-10-26T11:23:54;101379.91;;;21.95;55.99
45285;BME280;31026;43.780;25.948;2022-10-26T11:26:25;101379.31;;;21.81;54.25
45285;BME280;31026;43.780;25.948;2022-10-26T11:28:55;101369.34;;;21.62;54.52
45285;BME280;31026;43.780;25.948;2022-10-26T11:31:29;101378.88;;;21.76;55.04
45285;BME280;31026;43.780;25.948;2022-10-26T11:34:05;101367.09;;;21.68;55.57
45285;BME280;31026;43.780;25.948;2022-10-26T11:36:38;101360.03;;;21.67;56.44
45285;BME280;31026;43.780;25.948;2022-10-26T11:39:10;101358.91;;;21.69;55.19
45285;BME280;31026;43.780;25.948;2022-10-26T11:41:43;101369.38;;;21.72;54.40
45285;BME280;31026;43.780;25.948;2022-10-26T11:44:14;101365.13;;;21.79;55.84
45285;BME280;31026;43.780;25.948;2022-10-26T11:46:48;101364.53;;;21.66;52.46
45285;BME280;31026;43.780;25.948;2022-10-26T11:49:19;101375.84;;;21.60;52.53
45285;BME280;31026;43.780;25.948;2022-10-26T11:51:50;101356.44;;;21.56;51.73
45285;BME280;31026;43.780;25.948;2022-10-26T11:54:21;101355.59;;;21.56;52.38
45285;BME280;31026;43.780;25.948;2022-10-26T11:56:51;101361.84;;;21.66;54.19
45285;BME280;31026;43.780;25.948;2022-10-26T11:59:20;101371.50;;;21.69;52.29
45285;BME280;31026;43.780;25.948;2022-10-26T12:01:53;101355.03;;;21.62;52.13
45285;BME280;31026;43.780;25.948;2022-10-26T12:04:24;101356.75;;;21.63;52.54
45285;BME280;31026;43.780;25.948;2022-10-26T12:06:55;101345.56;;;21.68;52.93
45285;BME280;31026;43.780;25.948;2022-10-26T12:09:26;101364.38;;;21.58;52.70
45285;BME280;31026;43.780;25.948;2022-10-26T12:11:58;101361.13;;;21.54;53.08
45285;BME280;31026;43.780;25.948;2022-10-26T12:14:32;101374.72;;;21.62;53.81
45285;BME280;31026;43.780;25.948;2022-10-26T12:17:08;101375.44;;;21.55;52.75
45285;BME280;31026;43.780;25.948;2022-10-26T12:19:40;101361.41;;;21.51;52.95
45285;BME280;31026;43.780;25.948;2022-10-26T12:22:12;101358.28;;;21.56;54.26
45285;BME280;31026;43.780;25.948;2022-10-26T12:24:42;101346.09;;;21.52;53.85
45285;BME280;31026;43.780;25.948;2022-10-26T12:30:12;101356.72;;;21.53;53.79
45285;BME280;31026;43.780;25.948;2022-10-26T12:32:53;101360.69;;;21.49;52.79
45285;BME280;31026;43.780;25.948;2022-10-26T12:35:32;101356.88;;;21.61;54.67
45285;BME280;31026;43.780;25.948;2022-10-26T12:38:01;101365.53;;;21.55;52.32
45285;BME280;31026;43.780;25.948;2022-10-26T12:40:52;101362.53;;;21.58;52.17
45285;BME280;31026;43.780;25.948;2022-10-26T12:43:36;101359.72;;;21.60;54.76
45285;BME280;31026;43.780;25.948;2022-10-26T12:48:48;101356.88;;;21.52;53.43
45285;BME280;31026;43.780;25.948;2022-10-26T12:51:17;101362.25;;;21.52;52.34
45285;BME280;31026;43.780;25.948;2022-10-26T12:54:08;101367.06;;;21.58;52.17
45285;BME280;31026;43.780;25.948;2022-10-26T12:56:49;101363.25;;;21.51;51.96
45285;BME280;31026;43.780;25.948;2022-10-26T12:59:21;101364.09;;;21.51;51.33
45285;BME280;31026;43.780;25.948;2022-10-26T13:02:02;101366.66;;;21.53;51.03
45285;BME280;31026;43.780;25.948;2022-10-26T13:04:43;101360.56;;;21.51;51.07
45285;BME280;31026;43.780;25.948;2022-10-26T13:07:18;101359.28;;;21.55;51.29
45285;BME280;31026;43.780;25.948;2022-10-26T13:09:53;101355.88;;;21.53;50.78
45285;BME280;31026;43.780;25.948;2022-10-26T13:12:25;101360.28;;;21.54;50.83
45285;BME280;31026;43.780;25.948;2022-10-26T13:14:59;101363.97;;;21.53;51.39
45285;BME280;31026;43.780;25.948;2022-10-26T13:17:29;101365.94;;;21.51;51.77